sensor_id;sensor_type;location;lat;lon;timestamp;P1;durP1;ratioP1;P2;durP2;ratioP2
3415;SDS011;1721;51.238;9.562;2023-05-16T00:02:23;26.08;;;14.35;;
3415;SDS011;1721;51.238;9.562;2023-05-16T00:04:49;26.97;;;14.70;;
3415;SDS011;1721;51.238;9.562;2023-05-16T00:07:16;30.48;;;14.70;;
3415;SDS011;1721;51.238;9.562;2023-05-16T00:09:41;30.70;;;15.50;;
3415;SDS011;1721;51.238;9.562;2023-05-16T00:12:07;28.60;;;14.97;;
3415;SDS011;1721;51.238;9.562;2023-05-16T00:14:33;29.02;;;15.60;;
3415;SDS011;1721;51.238;9.562;2023-05-16T00:17:00;28.00;;;15.60;;
3415;SDS011;1721;51.238;9.562;2023-05-16T00:19:28;28.80;;;15.60;;
3415;SDS011;1721;51.238;9.562;2023-05-16T00:21:54;29.45;;;15.80;;
3415;SDS011;1721;51.238;9.562;2023-05-16T00:24:20;27.30;;;15.13;;
3415;SDS011;1721;51.238;9.562;2023-05-16T00:26:45;27.10;;;15.02;;
3415;SDS011;1721;51.238;9.562;2023-05-16T00:29:11;33.00;;;15.65;;
3415;SDS011;1721;51.238;9.562;2023-05-16T00:31:36;27.50;;;15.73;;
3415;SDS011;1721;51.238;9.562;2023-05-16T00:34:02;31.17;;;15.55;;
3415;SDS011;1721;51.238;9.562;2023-05-16T00:36:28;29.25;;;15.25;;
3415;SDS011;1721;51.238;9.562;2023-05-16T00:38:54;27.30;;;14.77;;
3415;SDS011;1721;51.238;9.562;2023-05-16T00:41:20;26.53;;;14.10;;
3415;SDS011;1721;51.238;9.562;2023-05-16T00:43:46;27.17;;;15.68;;
3415;SDS011;1721;51.238;9.562;2023-05-16T00:46:11;26.63;;;14.52;;
3415;SDS011;1721;51.238;9.562;2023-05-16T00:48:37;27.48;;;14.98;;
3415;SDS011;1721;51.238;9.562;2023-05-16T00:51:03;26.73;;;14.15;;
3415;SDS011;1721;51.238;9.562;2023-05-16T00:53:33;28.65;;;14.15;;
3415;SDS011;1721;51.238;9.562;2023-05-16T00:55:59;24.80;;;13.60;;
3415;SDS011;1721;51.238;9.562;2023-05-16T00:58:25;26.42;;;14.60;;
3415;SDS011;1721;51.238;9.562;2023-05-16T01:00:51;30.08;;;14.70;;
3415;SDS011;1721;51.238;9.562;2023-05-16T01:03:17;28.27;;;14.80;;
3415;SDS011;1721;51.238;9.562;2023-05-16T01:05:43;25.93;;;14.47;;
3415;SDS011;1721;51.238;9.562;2023-05-16T01:08:09;28.80;;;15.00;;
3415;SDS011;1721;51.238;9.562;2023-05-16T01:10:38;26.90;;;13.82;;
3415;SDS011;1721;51.238;9.562;2023-05-16T01:16:11;29.92;;;14.75;;
3415;SDS011;1721;51.238;9.562;2023-05-16T01:18:46;27.67;;;15.20;;
3415;SDS011;1721;51.238;9.562;2023-05-16T01:21:37;27.45;;;14.90;;
3415;SDS011;1721;51.238;9.562;2023-05-16T01:24:28;29.83;;;15.48;;
3415;SDS011;1721;51.238;9.562;2023-05-16T01:26:59;27.77;;;15.48;;
3415;SDS011;1721;51.238;9.562;2023-05-16T01:29:25;27.48;;;14.82;;
3415;SDS011;1721;51.238;9.562;2023-05-16T01:31:51;25.63;;;14.23;;
3415;SDS011;1721;51.238;9.562;2023-05-16T01:34:16;25.77;;;14.30;;
3415;SDS011;1721;51.238;9.562;2023-05-16T01:39:36;24.48;;;14.05;;
3415;SDS011;1721;51.238;9.562;2023-05-16T01:42:08;24.23;;;13.77;;
3415;SDS011;1721;51.238;9.562;2023-05-16T01:47:29;25.35;;;14.05;;
3415;SDS011;1721;51.238;9.562;2023-05-16T01:50:00;23.30;;;12.80;;
3415;SDS011;1721;51.238;9.562;2023-05-16T01:52:44;22.90;;;12.43;;
3415;SDS011;1721;51.238;9.562;2023-05-16T01:55:22;24.35;;;13.20;;
3415;SDS011;1721;51.238;9.562;2023-05-16T01:57:54;26.73;;;12.57;;
3415;SDS011;1721;51.238;9.562;2023-05-16T02:00:22;22.00;;;12.07;;
3415;SDS011;1721;51.238;9.562;2023-05-16T02:02:47;22.65;;;12.45;;
3415;SDS011;1721;51.238;9.562;2023-05-16T02:05:13;20.73;;;11.63;;
3415;SDS011;1721;51.238;9.562;2023-05-16T02:07:39;24.33;;;12.10;;
3415;SDS011;1721;51.238;9.562;2023-05-16T02:10:05;22.33;;;11.77;;
3415;SDS011;1721;51.238;9.562;2023-05-16T02:12:31;23.95;;;12.68;;
3415;SDS011;1721;51.238;9.562;2023-05-16T02:14:56;25.07;;;12.40;;
3415;SDS011;1721;51.238;9.562;2023-05-16T02:17:22;25.17;;;13.10;;
3415;SDS011;1721;51.238;9.562;2023-05-16T02:19:47;23.77;;;12.33;;
3415;SDS011;1721;51.238;9.562;2023-05-16T02:22:13;24.17;;;12.43;;
3415;SDS011;1721;51.238;9.562;2023-05-16T02:24:38;25.77;;;13.30;;
3415;SDS011;1721;51.238;9.562;2023-05-16T02:27:04;24.13;;;13.00;;
3415;SDS011;1721;51.238;9.562;2023-05-16T02:29:30;25.02;;;13.48;;
3415;SDS011;1721;51.238;9.562;2023-05-16T02:31:55;25.38;;;13.35;;
3415;SDS011;1721;51.238;9.562;2023-05-16T02:34:21;27.23;;;14.90;;
3415;SDS011;1721;51.238;9.562;2023-05-16T02:36:46;26.77;;;14.13;;
3415;SDS011;1721;51.238;9.562;2023-05-16T02:39:12;28.47;;;14.70;;
3415;SDS011;1721;51.238;9.562;2023-05-16T02:41:37;27.50;;;14.60;;
3415;SDS011;1721;51.238;9.562;2023-05-16T02:44:03;28.50;;;14.57;;
3415;SDS011;1721;51.238;9.562;2023-05-16T02:46:29;26.57;;;14.43;;
3415;SDS011;1721;51.238;9.562;2023-05-16T02:48:57;29.02;;;13.98;;
3415;SDS011;1721;51.238;9.562;2023-05-16T02:51:24;32.65;;;14.88;;
3415;SDS011;1721;51.238;9.562;2023-05-16T02:53:51;28.37;;;14.50;;
3415;SDS011;1721;51.238;9.562;2023-05-16T02:56:18;27.00;;;13.73;;
3415;SDS011;1721;51.238;9.562;2023-05-16T02:58:45;27.73;;;14.13;;
3415;SDS011;1721;51.238;9.562;2023-05-16T03:01:12;28.58;;;14.13;;
3415;SDS011;1721;51.238;9.562;2023-05-16T03:03:38;27.10;;;13.68;;
3415;SDS011;1721;51.238;9.562;2023-05-16T03:06:03;27.70;;;14.00;;
3415;SDS011;1721;51.238;9.562;2023-05-16T03:08:30;26.90;;;14.15;;
3415;SDS011;1721;51.238;9.562;2023-05-16T03:10:55;28.20;;;14.03;;
3415;SDS011;1721;51.238;9.562;2023-05-16T03:13:21;30.08;;;13.70;;
3415;SDS011;1721;51.238;9.562;2023-05-16T03:15:47;25.48;;;13.63;;
3415;SDS011;1721;51.238;9.562;2023-05-16T03:18:13;27.47;;;12.90;;
3415;SDS011;1721;51.238;9.562;2023-05-16T03:20:38;23.17;;;11.50;;
3415;SDS011;1721;51.238;9.562;2023-05-16T03:23:04;23.33;;;11.20;;
3415;SDS011;1721;51.238;9.562;2023-05-16T03:25:35;27.42;;;10.95;;
3415;SDS011;1721;51.238;9.562;2023-05-16T03:28:01;25.92;;;11.65;;
3415;SDS011;1721;51.238;9.562;2023-05-16T03:30:31;28.58;;;12.32;;
3415;SDS011;1721;51.238;9.562;2023-05-16T03:32:57;22.50;;;10.73;;
3415;SDS011;1721;51.238;9.562;2023-05-16T03:35:23;27.47;;;12.10;;
3415;SDS011;1721;51.238;9.562;2023-05-16T03:37:48;22.47;;;10.43;;
3415;SDS011;1721;51.238;9.562;2023-05-16T03:40:14;26.03;;;12.00;;
3415;SDS011;1721;51.238;9.562;2023-05-16T03:42:40;25.97;;;11.20;;
3415;SDS011;1721;51.238;9.562;2023-05-16T03:45:05;30.23;;;11.50;;
3415;SDS011;1721;51.238;9.562;2023-05-16T03:47:31;23.15;;;11.10;;
3415;SDS011;1721;51.238;9.562;2023-05-16T03:49:57;28.70;;;12.90;;
3415;SDS011;1721;51.238;9.562;2023-05-16T03:52:23;25.80;;;11.60;;
3415;SDS011;1721;51.238;9.562;2023-05-16T03:54:48;28.60;;;11.17;;
3415;SDS011;1721;51.238;9.562;2023-05-16T03:57:14;26.73;;;9.97;;
3415;SDS011;1721;51.238;9.562;2023-05-16T03:59:40;22.77;;;11.00;;
3415;SDS011;1721;51.238;9.562;2023-05-16T04:02:06;24.80;;;10.10;;
3415;SDS011;1721;51.238;9.562;2023-05-16T04:04:31;29.93;;;10.60;;
3415;SDS011;1721;51.238;9.562;2023-05-16T04:06:57;27.60;;;9.70;;
3415;SDS011;1721;51.238;9.562;2023-05-16T04:09:22;23.17;;;10.50;;
3415;SDS011;1721;51.238;9.562;2023-05-16T04:11:48;21.77;;;9.70;;
3415;SDS011;1721;51.238;9.562;2023-05-16T04:14:14;21.10;;;9.70;;
3415;SDS011;1721;51.238;9.562;2023-05-16T04:16:39;22.40;;;9.20;;
3415;SDS011;1721;51.238;9.562;2023-05-16T04:19:05;26.83;;;9.30;;
3415;SDS011;1721;51.238;9.562;2023-05-16T04:21:31;21.77;;;7.63;;
3415;SDS011;1721;51.238;9.562;2023-05-16T04:23:57;18.87;;;9.30;;
3415;SDS011;1721;51.238;9.562;2023-05-16T04:26:23;20.47;;;8.17;;
3415;SDS011;1721;51.238;9.562;2023-05-16T04:28:48;19.90;;;7.93;;
3415;SDS011;1721;51.238;9.562;2023-05-16T04:31:14;17.40;;;8.17;;
3415;SDS011;1721;51.238;9.562;2023-05-16T04:33:40;15.60;;;6.83;;
3415;SDS011;1721;51.238;9.562;2023-05-16T04:36:06;20.13;;;7.77;;
3415;SDS011;1721;51.238;9.562;2023-05-16T04:38:32;25.53;;;8.60;;
3415;SDS011;1721;51.238;9.562;2023-05-16T04:40:57;20.60;;;8.97;;
3415;SDS011;1721;51.238;9.562;2023-05-16T04:43:23;16.87;;;7.90;;
3415;SDS011;1721;51.238;9.562;2023-05-16T04:45:49;14.90;;;7.63;;
3415;SDS011;1721;51.238;9.562;2023-05-16T04:48:14;15.93;;;7.10;;
3415;SDS011;1721;51.238;9.562;2023-05-16T04:50:40;18.83;;;7.03;;
3415;SDS011;1721;51.238;9.562;2023-05-16T04:53:06;23.53;;;6.83;;
3415;SDS011;1721;51.238;9.562;2023-05-16T04:55:31;23.77;;;6.80;;
3415;SDS011;1721;51.238;9.562;2023-05-16T04:57:57;15.13;;;7.07;;
3415;SDS011;1721;51.238;9.562;2023-05-16T05:00:23;13.60;;;5.90;;
3415;SDS011;1721;51.238;9.562;2023-05-16T05:02:48;12.17;;;5.77;;
3415;SDS011;1721;51.238;9.562;2023-05-16T05:05:14;11.17;;;5.10;;
3415;SDS011;1721;51.238;9.562;2023-05-16T05:07:40;13.20;;;5.73;;
3415;SDS011;1721;51.238;9.562;2023-05-16T05:10:06;15.77;;;6.43;;
3415;SDS011;1721;51.238;9.562;2023-05-16T05:12:32;11.63;;;5.10;;
3415;SDS011;1721;51.238;9.562;2023-05-16T05:14:58;11.10;;;5.05;;
3415;SDS011;1721;51.238;9.562;2023-05-16T05:17:24;11.27;;;5.40;;
3415;SDS011;1721;51.238;9.562;2023-05-16T05:19:50;10.17;;;4.60;;
3415;SDS011;1721;51.238;9.562;2023-05-16T05:22:15;12.10;;;4.93;;
3415;SDS011;1721;51.238;9.562;2023-05-16T05:24:41;10.80;;;4.90;;
3415;SDS011;1721;51.238;9.562;2023-05-16T05:27:06;12.93;;;5.40;;
3415;SDS011;1721;51.238;9.562;2023-05-16T05:29:32;14.97;;;5.87;;
3415;SDS011;1721;51.238;9.562;2023-05-16T05:31:57;11.10;;;5.60;;
3415;SDS011;1721;51.238;9.562;2023-05-16T05:34:23;12.40;;;4.87;;
3415;SDS011;1721;51.238;9.562;2023-05-16T05:36:49;11.37;;;5.23;;
3415;SDS011;1721;51.238;9.562;2023-05-16T05:39:14;9.97;;;4.37;;
3415;SDS011;1721;51.238;9.562;2023-05-16T05:41:40;7.03;;;3.93;;
3415;SDS011;1721;51.238;9.562;2023-05-16T05:44:05;7.97;;;3.70;;
3415;SDS011;1721;51.238;9.562;2023-05-16T05:46:31;7.80;;;3.97;;
3415;SDS011;1721;51.238;9.562;2023-05-16T05:48:58;7.90;;;3.75;;
3415;SDS011;1721;51.238;9.562;2023-05-16T05:51:24;9.23;;;4.13;;
3415;SDS011;1721;51.238;9.562;2023-05-16T05:53:50;11.93;;;4.10;;
3415;SDS011;1721;51.238;9.562;2023-05-16T05:56:16;11.38;;;3.35;;
3415;SDS011;1721;51.238;9.562;2023-05-16T05:58:42;10.27;;;3.37;;
3415;SDS011;1721;51.238;9.562;2023-05-16T06:01:09;9.90;;;3.20;;
3415;SDS011;1721;51.238;9.562;2023-05-16T06:03:35;6.30;;;3.03;;
3415;SDS011;1721;51.238;9.562;2023-05-16T06:06:00;6.80;;;3.20;;
3415;SDS011;1721;51.238;9.562;2023-05-16T06:08:26;7.27;;;2.80;;
3415;SDS011;1721;51.238;9.562;2023-05-16T06:10:51;10.70;;;2.70;;
3415;SDS011;1721;51.238;9.562;2023-05-16T06:13:18;13.13;;;2.70;;
3415;SDS011;1721;51.238;9.562;2023-05-16T06:15:43;5.70;;;2.33;;
3415;SDS011;1721;51.238;9.562;2023-05-16T06:18:13;7.32;;;2.60;;
3415;SDS011;1721;51.238;9.562;2023-05-16T06:20:39;10.53;;;3.13;;
3415;SDS011;1721;51.238;9.562;2023-05-16T06:23:04;6.23;;;2.07;;
3415;SDS011;1721;51.238;9.562;2023-05-16T06:25:30;6.53;;;2.50;;
3415;SDS011;1721;51.238;9.562;2023-05-16T06:27:55;6.53;;;2.37;;
3415;SDS011;1721;51.238;9.562;2023-05-16T06:30:21;5.20;;;1.70;;
3415;SDS011;1721;51.238;9.562;2023-05-16T06:32:46;7.70;;;2.10;;
3415;SDS011;1721;51.238;9.562;2023-05-16T06:35:12;12.90;;;2.10;;
3415;SDS011;1721;51.238;9.562;2023-05-16T06:37:37;9.53;;;1.97;;
3415;SDS011;1721;51.238;9.562;2023-05-16T06:40:03;7.87;;;2.20;;
3415;SDS011;1721;51.238;9.562;2023-05-16T06:42:29;6.88;;;2.40;;
3415;SDS011;1721;51.238;9.562;2023-05-16T06:44:55;12.23;;;2.63;;
3415;SDS011;1721;51.238;9.562;2023-05-16T06:47:20;11.60;;;2.43;;
3415;SDS011;1721;51.238;9.562;2023-05-16T06:49:46;7.90;;;2.50;;
3415;SDS011;1721;51.238;9.562;2023-05-16T06:52:11;6.60;;;1.50;;
3415;SDS011;1721;51.238;9.562;2023-05-16T06:54:37;8.27;;;2.07;;
3415;SDS011;1721;51.238;9.562;2023-05-16T06:57:02;6.53;;;1.80;;
3415;SDS011;1721;51.238;9.562;2023-05-16T06:59:28;8.80;;;1.93;;
3415;SDS011;1721;51.238;9.562;2023-05-16T07:01:54;7.23;;;1.80;;
3415;SDS011;1721;51.238;9.562;2023-05-16T07:04:19;10.00;;;2.37;;
3415;SDS011;1721;51.238;9.562;2023-05-16T07:06:45;10.50;;;1.97;;
3415;SDS011;1721;51.238;9.562;2023-05-16T07:09:10;8.60;;;1.73;;
3415;SDS011;1721;51.238;9.562;2023-05-16T07:11:36;8.90;;;2.20;;
3415;SDS011;1721;51.238;9.562;2023-05-16T07:14:01;10.40;;;2.30;;
3415;SDS011;1721;51.238;9.562;2023-05-16T07:16:27;13.00;;;1.73;;
3415;SDS011;1721;51.238;9.562;2023-05-16T07:18:53;6.30;;;2.10;;
3415;SDS011;1721;51.238;9.562;2023-05-16T07:21:18;9.93;;;1.93;;
3415;SDS011;1721;51.238;9.562;2023-05-16T07:23:44;8.70;;;2.47;;
3415;SDS011;1721;51.238;9.562;2023-05-16T07:26:10;8.10;;;1.93;;
3415;SDS011;1721;51.238;9.562;2023-05-16T07:28:35;10.50;;;1.80;;
3415;SDS011;1721;51.238;9.562;2023-05-16T07:31:01;7.07;;;1.80;;
3415;SDS011;1721;51.238;9.562;2023-05-16T07:33:26;6.33;;;1.90;;
3415;SDS011;1721;51.238;9.562;2023-05-16T07:35:52;10.50;;;2.80;;
3415;SDS011;1721;51.238;9.562;2023-05-16T07:38:19;8.13;;;2.30;;
3415;SDS011;1721;51.238;9.562;2023-05-16T07:40:45;12.65;;;1.88;;
3415;SDS011;1721;51.238;9.562;2023-05-16T07:43:11;7.07;;;2.13;;
3415;SDS011;1721;51.238;9.562;2023-05-16T07:45:36;11.83;;;2.60;;
3415;SDS011;1721;51.238;9.562;2023-05-16T07:48:02;8.40;;;2.23;;
3415;SDS011;1721;51.238;9.562;2023-05-16T07:50:28;8.27;;;2.50;;
3415;SDS011;1721;51.238;9.562;2023-05-16T07:52:53;8.10;;;1.80;;
3415;SDS011;1721;51.238;9.562;2023-05-16T07:55:19;12.67;;;2.27;;
3415;SDS011;1721;51.238;9.562;2023-05-16T07:57:46;9.13;;;1.80;;
3415;SDS011;1721;51.238;9.562;2023-05-16T08:00:12;6.03;;;1.80;;
3415;SDS011;1721;51.238;9.562;2023-05-16T08:02:38;8.55;;;2.30;;
3415;SDS011;1721;51.238;9.562;2023-05-16T08:05:05;10.70;;;2.50;;
3415;SDS011;1721;51.238;9.562;2023-05-16T08:07:31;9.27;;;1.80;;
3415;SDS011;1721;51.238;9.562;2023-05-16T08:09:57;13.90;;;1.87;;
3415;SDS011;1721;51.238;9.562;2023-05-16T08:12:23;12.67;;;1.60;;
3415;SDS011;1721;51.238;9.562;2023-05-16T08:14:49;8.57;;;2.10;;
3415;SDS011;1721;51.238;9.562;2023-05-16T08:17:14;7.13;;;1.63;;
3415;SDS011;1721;51.238;9.562;2023-05-16T08:19:40;9.80;;;1.80;;
3415;SDS011;1721;51.238;9.562;2023-05-16T08:22:06;12.77;;;1.90;;
3415;SDS011;1721;51.238;9.562;2023-05-16T08:24:33;12.43;;;1.98;;
3415;SDS011;1721;51.238;9.562;2023-05-16T08:26:58;13.63;;;1.60;;
3415;SDS011;1721;51.238;9.562;2023-05-16T08:29:24;16.53;;;4.73;;
3415;SDS011;1721;51.238;9.562;2023-05-16T08:31:50;5.53;;;1.43;;
3415;SDS011;1721;51.238;9.562;2023-05-16T08:34:16;8.00;;;1.67;;
3415;SDS011;1721;51.238;9.562;2023-05-16T08:36:41;12.27;;;1.80;;
3415;SDS011;1721;51.238;9.562;2023-05-16T08:39:07;7.93;;;2.17;;
3415;SDS011;1721;51.238;9.562;2023-05-16T08:41:35;6.43;;;1.73;;
3415;SDS011;1721;51.238;9.562;2023-05-16T08:44:01;6.80;;;1.48;;
3415;SDS011;1721;51.238;9.562;2023-05-16T08:46:27;12.82;;;1.83;;
3415;SDS011;1721;51.238;9.562;2023-05-16T08:48:54;9.80;;;1.88;;
3415;SDS011;1721;51.238;9.562;2023-05-16T08:51:23;18.08;;;1.90;;
3415;SDS011;1721;51.238;9.562;2023-05-16T08:53:59;12.30;;;1.65;;
3415;SDS011;1721;51.238;9.562;2023-05-16T08:56:28;6.32;;;1.40;;
3415;SDS011;1721;51.238;9.562;2023-05-16T08:58:54;4.73;;;1.30;;
3415;SDS011;1721;51.238;9.562;2023-05-16T09:01:22;11.13;;;1.42;;
3415;SDS011;1721;51.238;9.562;2023-05-16T09:03:48;8.43;;;1.13;;
3415;SDS011;1721;51.238;9.562;2023-05-16T09:06:14;6.22;;;1.10;;
3415;SDS011;1721;51.238;9.562;2023-05-16T09:08:40;8.40;;;1.33;;
3415;SDS011;1721;51.238;9.562;2023-05-16T09:11:06;10.15;;;1.92;;
3415;SDS011;1721;51.238;9.562;2023-05-16T09:13:32;13.73;;;1.58;;
3415;SDS011;1721;51.238;9.562;2023-05-16T09:16:14;6.23;;;1.57;;
3415;SDS011;1721;51.238;9.562;2023-05-16T09:18:42;5.75;;;1.40;;
3415;SDS011;1721;51.238;9.562;2023-05-16T09:21:09;5.38;;;0.98;;
3415;SDS011;1721;51.238;9.562;2023-05-16T09:23:35;12.15;;;1.30;;
3415;SDS011;1721;51.238;9.562;2023-05-16T09:26:01;7.87;;;1.50;;
3415;SDS011;1721;51.238;9.562;2023-05-16T09:28:29;7.25;;;1.40;;
3415;SDS011;1721;51.238;9.562;2023-05-16T09:30:55;11.50;;;1.63;;
3415;SDS011;1721;51.238;9.562;2023-05-16T09:33:23;9.70;;;1.25;;
3415;SDS011;1721;51.238;9.562;2023-05-16T09:35:54;11.15;;;1.65;;
3415;SDS011;1721;51.238;9.562;2023-05-16T09:38:28;8.45;;;1.60;;
3415;SDS011;1721;51.238;9.562;2023-05-16T09:40:54;8.90;;;1.10;;
3415;SDS011;1721;51.238;9.562;2023-05-16T09:43:24;11.73;;;1.63;;
3415;SDS011;1721;51.238;9.562;2023-05-16T09:45:50;12.13;;;1.35;;
3415;SDS011;1721;51.238;9.562;2023-05-16T09:48:16;9.82;;;1.55;;
3415;SDS011;1721;51.238;9.562;2023-05-16T09:50:49;9.27;;;1.27;;
3415;SDS011;1721;51.238;9.562;2023-05-16T09:53:16;14.05;;;1.48;;
3415;SDS011;1721;51.238;9.562;2023-05-16T09:55:43;10.90;;;1.52;;
3415;SDS011;1721;51.238;9.562;2023-05-16T09:58:08;16.20;;;1.90;;
3415;SDS011;1721;51.238;9.562;2023-05-16T10:00:34;10.20;;;1.47;;
3415;SDS011;1721;51.238;9.562;2023-05-16T10:03:01;10.07;;;1.88;;
3415;SDS011;1721;51.238;9.562;2023-05-16T10:05:27;7.03;;;1.25;;
3415;SDS011;1721;51.238;9.562;2023-05-16T10:07:54;5.70;;;0.88;;
3415;SDS011;1721;51.238;9.562;2023-05-16T10:10:20;6.10;;;1.20;;
3415;SDS011;1721;51.238;9.562;2023-05-16T10:12:46;8.38;;;1.60;;
3415;SDS011;1721;51.238;9.562;2023-05-16T10:15:13;9.85;;;1.20;;
3415;SDS011;1721;51.238;9.562;2023-05-16T10:17:40;9.25;;;1.50;;
3415;SDS011;1721;51.238;9.562;2023-05-16T10:20:09;6.20;;;1.42;;
3415;SDS011;1721;51.238;9.562;2023-05-16T10:22:38;6.60;;;1.60;;
3415;SDS011;1721;51.238;9.562;2023-05-16T10:25:23;12.75;;;1.90;;
3415;SDS011;1721;51.238;9.562;2023-05-16T10:27:54;6.05;;;1.00;;
3415;SDS011;1721;51.238;9.562;2023-05-16T10:30:20;7.93;;;1.73;;
3415;SDS011;1721;51.238;9.562;2023-05-16T10:32:46;10.10;;;1.07;;
3415;SDS011;1721;51.238;9.562;2023-05-16T10:35:13;8.20;;;1.33;;
3415;SDS011;1721;51.238;9.562;2023-05-16T10:37:39;4.47;;;1.02;;
3415;SDS011;1721;51.238;9.562;2023-05-16T10:40:06;14.30;;;1.45;;
3415;SDS011;1721;51.238;9.562;2023-05-16T10:42:32;9.63;;;1.30;;
3415;SDS011;1721;51.238;9.562;2023-05-16T10:45:08;4.53;;;1.17;;
3415;SDS011;1721;51.238;9.562;2023-05-16T10:47:39;7.53;;;1.55;;
3415;SDS011;1721;51.238;9.562;2023-05-16T10:50:05;7.70;;;1.50;;
3415;SDS011;1721;51.238;9.562;2023-05-16T10:52:31;9.70;;;1.05;;
3415;SDS011;1721;51.238;9.562;2023-05-16T10:54:58;12.63;;;1.55;;
3415;SDS011;1721;51.238;9.562;2023-05-16T10:57:27;9.40;;;1.35;;
3415;SDS011;1721;51.238;9.562;2023-05-16T10:59:53;6.73;;;1.33;;
3415;SDS011;1721;51.238;9.562;2023-05-16T11:02:21;6.72;;;1.42;;
3415;SDS011;1721;51.238;9.562;2023-05-16T11:04:51;10.32;;;1.20;;
3415;SDS011;1721;51.238;9.562;2023-05-16T11:07:18;5.60;;;0.90;;
3415;SDS011;1721;51.238;9.562;2023-05-16T11:09:44;7.68;;;1.27;;
3415;SDS011;1721;51.238;9.562;2023-05-16T11:12:16;4.55;;;0.90;;
3415;SDS011;1721;51.238;9.562;2023-05-16T11:14:44;8.30;;;1.33;;
3415;SDS011;1721;51.238;9.562;2023-05-16T11:17:22;6.55;;;1.25;;
3415;SDS011;1721;51.238;9.562;2023-05-16T11:27:29;6.20;;;1.05;;
3415;SDS011;1721;51.238;9.562;2023-05-16T11:29:58;4.25;;;1.00;;
3415;SDS011;1721;51.238;9.562;2023-05-16T11:32:45;7.25;;;0.90;;
3415;SDS011;1721;51.238;9.562;2023-05-16T11:35:13;6.80;;;1.20;;
3415;SDS011;1721;51.238;9.562;2023-05-16T11:37:39;4.75;;;1.23;;
3415;SDS011;1721;51.238;9.562;2023-05-16T11:40:06;8.65;;;1.23;;
3415;SDS011;1721;51.238;9.562;2023-05-16T11:42:37;7.82;;;1.10;;
3415;SDS011;1721;51.238;9.562;2023-05-16T11:45:06;5.43;;;0.85;;
3415;SDS011;1721;51.238;9.562;2023-05-16T11:47:35;6.30;;;1.30;;
3415;SDS011;1721;51.238;9.562;2023-05-16T11:50:18;7.95;;;1.25;;
3415;SDS011;1721;51.238;9.562;2023-05-16T11:52:48;6.22;;;1.27;;
3415;SDS011;1721;51.238;9.562;2023-05-16T11:55:21;6.63;;;1.17;;
3415;SDS011;1721;51.238;9.562;2023-05-16T11:57:52;9.35;;;1.20;;
3415;SDS011;1721;51.238;9.562;2023-05-16T12:00:21;5.82;;;1.00;;
3415;SDS011;1721;51.238;9.562;2023-05-16T12:02:51;4.95;;;1.60;;
3415;SDS011;1721;51.238;9.562;2023-05-16T12:05:19;7.38;;;1.23;;
3415;SDS011;1721;51.238;9.562;2023-05-16T12:07:49;6.13;;;1.00;;
3415;SDS011;1721;51.238;9.562;2023-05-16T12:10:15;7.13;;;0.90;;
3415;SDS011;1721;51.238;9.562;2023-05-16T12:12:42;10.47;;;1.33;;
3415;SDS011;1721;51.238;9.562;2023-05-16T12:15:10;5.30;;;0.93;;
3415;SDS011;1721;51.238;9.562;2023-05-16T12:17:36;5.55;;;1.10;;
3415;SDS011;1721;51.238;9.562;2023-05-16T12:20:04;6.47;;;1.20;;
3415;SDS011;1721;51.238;9.562;2023-05-16T12:22:30;5.30;;;1.20;;
3415;SDS011;1721;51.238;9.562;2023-05-16T12:27:54;4.65;;;1.30;;
3415;SDS011;1721;51.238;9.562;2023-05-16T12:30:22;5.68;;;0.90;;
3415;SDS011;1721;51.238;9.562;2023-05-16T12:32:55;5.38;;;0.90;;
3415;SDS011;1721;51.238;9.562;2023-05-16T12:35:33;4.60;;;1.30;;
3415;SDS011;1721;51.238;9.562;2023-05-16T12:38:03;7.47;;;1.25;;
3415;SDS011;1721;51.238;9.562;2023-05-16T12:40:29;6.10;;;1.00;;
3415;SDS011;1721;51.238;9.562;2023-05-16T12:42:55;11.83;;;1.20;;
3415;SDS011;1721;51.238;9.562;2023-05-16T12:45:21;9.55;;;1.10;;
3415;SDS011;1721;51.238;9.562;2023-05-16T12:47:47;4.63;;;1.17;;
3415;SDS011;1721;51.238;9.562;2023-05-16T12:50:14;5.65;;;0.90;;
3415;SDS011;1721;51.238;9.562;2023-05-16T12:52:51;7.28;;;1.05;;
3415;SDS011;1721;51.238;9.562;2023-05-16T12:55:18;4.75;;;1.00;;
3415;SDS011;1721;51.238;9.562;2023-05-16T12:57:45;5.55;;;1.10;;
3415;SDS011;1721;51.238;9.562;2023-05-16T13:00:12;14.15;;;1.73;;
3415;SDS011;1721;51.238;9.562;2023-05-16T13:02:38;7.20;;;1.05;;
3415;SDS011;1721;51.238;9.562;2023-05-16T13:05:04;3.97;;;0.65;;
3415;SDS011;1721;51.238;9.562;2023-05-16T13:07:34;4.72;;;0.98;;
3415;SDS011;1721;51.238;9.562;2023-05-16T13:10:00;6.40;;;1.30;;
3415;SDS011;1721;51.238;9.562;2023-05-16T13:12:25;7.60;;;1.00;;
3415;SDS011;1721;51.238;9.562;2023-05-16T13:14:51;6.43;;;1.13;;
3415;SDS011;1721;51.238;9.562;2023-05-16T13:17:17;8.50;;;1.30;;
3415;SDS011;1721;51.238;9.562;2023-05-16T13:19:43;4.37;;;1.50;;
3415;SDS011;1721;51.238;9.562;2023-05-16T13:22:09;3.50;;;1.30;;
3415;SDS011;1721;51.238;9.562;2023-05-16T13:24:35;5.23;;;1.00;;
3415;SDS011;1721;51.238;9.562;2023-05-16T13:27:00;5.67;;;1.13;;
3415;SDS011;1721;51.238;9.562;2023-05-16T13:29:26;6.47;;;1.20;;
3415;SDS011;1721;51.238;9.562;2023-05-16T13:31:51;9.87;;;1.30;;
3415;SDS011;1721;51.238;9.562;2023-05-16T13:34:17;4.67;;;0.80;;
3415;SDS011;1721;51.238;9.562;2023-05-16T13:36:43;6.23;;;0.90;;
3415;SDS011;1721;51.238;9.562;2023-05-16T13:39:10;4.35;;;0.73;;
3415;SDS011;1721;51.238;9.562;2023-05-16T13:41:37;5.05;;;0.80;;
3415;SDS011;1721;51.238;9.562;2023-05-16T13:44:04;5.60;;;0.90;;
3415;SDS011;1721;51.238;9.562;2023-05-16T13:46:30;5.60;;;1.00;;
3415;SDS011;1721;51.238;9.562;2023-05-16T13:48:55;3.60;;;0.80;;
3415;SDS011;1721;51.238;9.562;2023-05-16T13:51:21;3.03;;;0.90;;
3415;SDS011;1721;51.238;9.562;2023-05-16T13:53:46;7.50;;;1.23;;
3415;SDS011;1721;51.238;9.562;2023-05-16T13:56:12;8.87;;;1.33;;
3415;SDS011;1721;51.238;9.562;2023-05-16T13:58:37;4.70;;;0.90;;
3415;SDS011;1721;51.238;9.562;2023-05-16T14:01:03;5.50;;;0.80;;
3415;SDS011;1721;51.238;9.562;2023-05-16T14:03:28;4.03;;;0.80;;
3415;SDS011;1721;51.238;9.562;2023-05-16T14:05:54;8.30;;;1.20;;
3415;SDS011;1721;51.238;9.562;2023-05-16T14:08:19;4.20;;;1.00;;
3415;SDS011;1721;51.238;9.562;2023-05-16T14:10:45;6.07;;;1.07;;
3415;SDS011;1721;51.238;9.562;2023-05-16T14:13:10;4.30;;;1.17;;
3415;SDS011;1721;51.238;9.562;2023-05-16T14:15:36;3.77;;;0.80;;
3415;SDS011;1721;51.238;9.562;2023-05-16T14:18:02;6.17;;;0.80;;
3415;SDS011;1721;51.238;9.562;2023-05-16T14:20:28;8.57;;;0.85;;
3415;SDS011;1721;51.238;9.562;2023-05-16T14:22:55;6.47;;;1.25;;
3415;SDS011;1721;51.238;9.562;2023-05-16T14:25:20;5.30;;;0.90;;
3415;SDS011;1721;51.238;9.562;2023-05-16T14:27:46;7.13;;;0.90;;
3415;SDS011;1721;51.238;9.562;2023-05-16T14:30:14;8.32;;;1.33;;
3415;SDS011;1721;51.238;9.562;2023-05-16T14:32:40;8.60;;;1.47;;
3415;SDS011;1721;51.238;9.562;2023-05-16T14:35:06;5.93;;;1.43;;
3415;SDS011;1721;51.238;9.562;2023-05-16T14:37:33;5.55;;;0.98;;
3415;SDS011;1721;51.238;9.562;2023-05-16T14:39:59;4.70;;;1.00;;
3415;SDS011;1721;51.238;9.562;2023-05-16T14:42:24;5.97;;;0.87;;
3415;SDS011;1721;51.238;9.562;2023-05-16T14:44:50;6.63;;;1.10;;
3415;SDS011;1721;51.238;9.562;2023-05-16T14:47:16;6.80;;;0.90;;
3415;SDS011;1721;51.238;9.562;2023-05-16T14:49:41;4.37;;;1.10;;
3415;SDS011;1721;51.238;9.562;2023-05-16T14:52:07;4.93;;;1.00;;
3415;SDS011;1721;51.238;9.562;2023-05-16T14:54:32;4.10;;;1.07;;
3415;SDS011;1721;51.238;9.562;2023-05-16T14:56:58;3.93;;;1.10;;
3415;SDS011;1721;51.238;9.562;2023-05-16T14:59:25;5.45;;;0.90;;
3415;SDS011;1721;51.238;9.562;2023-05-16T15:01:51;3.90;;;0.95;;
3415;SDS011;1721;51.238;9.562;2023-05-16T15:04:17;5.83;;;1.07;;
3415;SDS011;1721;51.238;9.562;2023-05-16T15:06:42;4.30;;;1.00;;
3415;SDS011;1721;51.238;9.562;2023-05-16T15:09:08;7.80;;;1.10;;
3415;SDS011;1721;51.238;9.562;2023-05-16T15:11:33;5.73;;;1.40;;
3415;SDS011;1721;51.238;9.562;2023-05-16T15:14:00;4.78;;;0.90;;
3415;SDS011;1721;51.238;9.562;2023-05-16T15:16:25;5.37;;;1.10;;
3415;SDS011;1721;51.238;9.562;2023-05-16T15:18:51;5.30;;;1.07;;
3415;SDS011;1721;51.238;9.562;2023-05-16T15:21:17;8.30;;;1.40;;
3415;SDS011;1721;51.238;9.562;2023-05-16T15:23:42;3.30;;;0.90;;